createdAt,value
2018-11-10T00:00:45.228Z,8.96
2018-11-10T00:01:53.866Z,8.87
2018-11-10T00:03:02.509Z,8.97
2018-11-10T00:04:11.166Z,8.96
2018-11-10T00:05:19.791Z,9
2018-11-10T00:06:28.428Z,9.11
2018-11-10T00:07:37.068Z,9.03
2018-11-10T00:08:45.713Z,9.05
2018-11-10T00:09:54.353Z,9.11
2018-11-10T00:11:02.995Z,9
2018-11-10T00:12:11.634Z,9.18
2018-11-10T00:13:20.544Z,9.16
2018-11-10T00:14:29.178Z,9.08
2018-11-10T00:15:37.822Z,9.13
2018-11-10T00:16:46.728Z,9.22
2018-11-10T00:17:55.374Z,9.19
2018-11-10T00:19:04.011Z,9.24
2018-11-10T00:20:12.650Z,9.19
2018-11-10T00:21:21.288Z,9.24
2018-11-10T00:22:29.925Z,9.19
2018-11-10T00:23:38.838Z,9.16
2018-11-10T00:24:47.478Z,9.16
2018-11-10T00:25:56.117Z,9.24
2018-11-10T00:27:04.752Z,9.24
2018-11-10T00:28:13.394Z,9.19
2018-11-10T00:29:22.033Z,9.16
2018-11-10T00:30:30.676Z,9.31
2018-11-10T00:31:39.311Z,9.26
2018-11-10T00:32:48.223Z,9.27
2018-11-10T00:33:56.859Z,9.29
2018-11-10T00:35:05.500Z,9.27
2018-11-10T00:36:14.132Z,9.24
2018-11-10T00:37:22.773Z,9.26
2018-11-10T00:38:31.416Z,9.26
2018-11-10T00:39:40.060Z,9.26
2018-11-10T00:40:48.700Z,9.24
2018-11-10T00:41:57.597Z,9.22
2018-11-10T00:43:06.237Z,9.24
2018-11-10T00:44:14.877Z,9.26
2018-11-10T00:45:23.522Z,9.33
2018-11-10T00:46:32.163Z,9.29
2018-11-10T00:47:40.800Z,9.34
2018-11-10T00:48:49.438Z,9.36
2018-11-10T00:49:58.082Z,9.45
2018-11-10T00:51:06.720Z,9.42
2018-11-10T00:52:15.357Z,9.45
2018-11-10T00:53:24.255Z,9.49
2018-11-10T00:54:33.172Z,9.44
2018-11-10T00:55:41.822Z,9.44
2018-11-10T00:56:50.439Z,9.42
2018-11-10T00:57:59.074Z,9.42
2018-11-10T00:59:07.711Z,9.47
2018-11-10T01:00:16.362Z,9.51
2018-11-10T01:01:24.996Z,9.44
2018-11-10T01:02:33.642Z,9.51
2018-11-10T01:03:42.270Z,9.55
2018-11-10T01:04:51.450Z,9.62
2018-11-10T01:06:00.087Z,9.62
2018-11-10T01:07:08.731Z,9.62
2018-11-10T01:08:17.362Z,9.62
2018-11-10T01:09:26.007Z,9.62
2018-11-10T01:10:34.644Z,9.55
2018-11-10T01:11:43.285Z,9.63
2018-11-10T01:12:52.193Z,9.62
2018-11-10T01:14:01.097Z,9.62
2018-11-10T01:15:09.751Z,9.66
2018-11-10T01:16:18.656Z,9.63
2018-11-10T01:17:27.302Z,9.64
2018-11-10T01:18:35.930Z,9.72
2018-11-10T01:19:44.573Z,9.73
2018-11-10T01:20:53.214Z,9.66
2018-11-10T01:22:02.125Z,9.76
2018-11-10T01:23:10.755Z,9.7
2018-11-10T01:24:19.399Z,9.77
2018-11-10T01:25:28.037Z,9.72
2018-11-10T01:26:36.956Z,9.81
2018-11-10T01:27:45.655Z,9.85
2018-11-10T01:28:54.503Z,9.87
2018-11-10T01:30:03.142Z,9.85
2018-11-10T01:31:11.791Z,9.76
2018-11-10T01:32:20.694Z,9.84
2018-11-10T01:33:29.591Z,9.81
2018-11-10T01:34:38.231Z,9.88
2018-11-10T01:35:46.863Z,9.9
2018-11-10T01:36:55.512Z,9.9
2018-11-10T01:38:04.147Z,9.97
2018-11-10T01:39:12.792Z,9.97
2018-11-10T01:40:21.420Z,9.94
2018-11-10T01:41:30.335Z,9.92
2018-11-10T01:42:38.974Z,10.05
2018-11-10T01:43:47.881Z,10
2018-11-10T01:44:56.513Z,10.06
2018-11-10T01:46:05.160Z,10.07
2018-11-10T01:47:13.809Z,9.99
2018-11-10T01:48:22.442Z,10.06
2018-11-10T01:49:31.070Z,10.07
2018-11-10T01:50:39.714Z,10.12
2018-11-10T01:51:48.358Z,10.06
2018-11-10T01:52:57.267Z,10.05
2018-11-10T01:54:05.909Z,10.12
2018-11-10T01:55:14.543Z,10.09
2018-11-10T01:56:23.453Z,10.1
2018-11-10T01:57:32.096Z,10.17
2018-11-10T01:58:40.740Z,10.18
2018-11-10T01:59:49.375Z,10.09
2018-11-10T02:00:58.019Z,10.15
2018-11-10T02:02:06.923Z,10.13
2018-11-10T02:03:15.832Z,10.2
2018-11-10T02:04:24.470Z,10.2
2018-11-10T02:05:33.896Z,10.1
2018-11-10T02:06:42.568Z,10.17
2018-11-10T02:07:51.534Z,10.21
2018-11-10T02:09:00.173Z,10.17
2018-11-10T02:10:09.343Z,10.17
2018-11-10T02:11:17.981Z,10.28
2018-11-10T02:12:26.619Z,10.25
2018-11-10T02:13:35.263Z,10.28
2018-11-10T02:14:43.906Z,10.3
2018-11-10T02:15:52.545Z,10.31
2018-11-10T02:17:01.184Z,10.25
2018-11-10T02:18:09.826Z,10.23
2018-11-10T02:19:18.468Z,10.31
2018-11-10T02:20:27.108Z,10.2
2018-11-10T02:21:35.744Z,10.17
2018-11-10T02:22:44.388Z,10.21
2018-11-10T02:23:53.025Z,10.23
2018-11-10T02:25:01.668Z,10.2
2018-11-10T02:26:11.117Z,10.09
2018-11-10T02:27:20.030Z,10.07
2018-11-10T02:28:28.670Z,10.12
2018-11-10T02:29:37.316Z,10.1
2018-11-10T02:30:45.964Z,10.07
2018-11-10T02:31:54.600Z,10.1
2018-11-10T02:33:03.240Z,10.23
2018-11-10T02:34:11.886Z,10.18
2018-11-10T02:35:20.527Z,10.2
2018-11-10T02:36:29.167Z,10.23
2018-11-10T02:37:38.096Z,10.3
2018-11-10T02:38:47.088Z,10.33
2018-11-10T02:39:55.662Z,10.28
2018-11-10T02:41:04.554Z,10.34
2018-11-10T02:42:13.195Z,10.36
2018-11-10T02:43:21.834Z,10.34
2018-11-10T02:44:30.488Z,10.36
2018-11-10T02:45:39.390Z,10.36
2018-11-10T02:46:48.289Z,10.46
2018-11-10T02:47:56.932Z,10.46
2018-11-10T02:49:05.921Z,10.53
2018-11-10T02:50:14.563Z,10.58
2018-11-10T02:51:23.203Z,10.53
2018-11-10T02:52:32.408Z,10.57
2018-11-10T02:53:41.008Z,10.65
2018-11-10T02:54:49.658Z,10.58
2018-11-10T02:55:58.297Z,10.61
2018-11-10T02:57:06.937Z,10.42
2018-11-10T02:58:15.572Z,10.43
2018-11-10T02:59:24.489Z,10.49
2018-11-10T03:00:33.127Z,10.49
2018-11-10T03:01:41.768Z,10.46
2018-11-10T03:02:50.396Z,10.59
2018-11-10T03:03:59.304Z,10.61
2018-11-10T03:05:07.948Z,10.59
2018-11-10T03:06:16.590Z,10.62
2018-11-10T03:07:25.232Z,10.62
2018-11-10T03:08:33.863Z,10.55
2018-11-10T03:09:42.509Z,10.62
2018-11-10T03:10:51.494Z,10.68
2018-11-10T03:12:00.051Z,10.64
2018-11-10T03:13:09.210Z,10.71
2018-11-10T03:14:17.856Z,10.71
2018-11-10T03:15:26.492Z,10.69
2018-11-10T03:16:35.228Z,10.68
2018-11-10T03:17:43.771Z,10.62
2018-11-10T03:18:52.413Z,10.59
2018-11-10T03:20:01.051Z,10.62
2018-11-10T03:21:09.965Z,10.58
2018-11-10T03:22:18.603Z,10.64
2018-11-10T03:23:27.237Z,10.58
2018-11-10T03:24:35.875Z,10.55
2018-11-10T03:25:44.511Z,10.55
2018-11-10T03:26:53.162Z,10.46
2018-11-10T03:28:01.797Z,10.53
2018-11-10T03:29:10.441Z,10.51
2018-11-10T03:30:19.077Z,10.58
2018-11-10T03:31:28.082Z,10.51
2018-11-10T03:32:37.054Z,10.48
2018-11-10T03:33:45.928Z,10.53
2018-11-10T03:34:54.701Z,10.57
2018-11-10T03:36:03.348Z,10.51
2018-11-10T03:37:12.253Z,10.45
2018-11-10T03:38:21.155Z,10.55
2018-11-10T03:39:29.786Z,10.51
2018-11-10T03:40:38.427Z,10.42
2018-11-10T03:41:47.337Z,10.59
2018-11-10T03:42:55.981Z,10.48
2018-11-10T03:44:04.625Z,10.43
2018-11-10T03:45:13.258Z,10.57
2018-11-10T03:46:21.904Z,10.51
2018-11-10T03:47:30.540Z,10.49
2018-11-10T03:48:39.246Z,10.49
2018-11-10T03:49:47.826Z,10.43
2018-11-10T03:50:56.725Z,10.53
2018-11-10T03:52:05.368Z,10.39
2018-11-10T03:53:14.001Z,10.42
2018-11-10T03:54:22.651Z,10.46
2018-11-10T03:55:31.289Z,10.45
2018-11-10T03:56:39.932Z,10.42
2018-11-10T03:57:49.096Z,10.48
2018-11-10T03:58:58.000Z,10.53
2018-11-10T04:00:06.646Z,10.58
2018-11-10T04:01:15.288Z,10.57
2018-11-10T04:02:23.936Z,10.62
2018-11-10T04:03:32.567Z,10.59
2018-11-10T04:04:41.214Z,10.58
2018-11-10T04:05:49.849Z,10.57
2018-11-10T04:06:58.497Z,10.68
2018-11-10T04:08:07.127Z,10.59
2018-11-10T04:09:15.773Z,10.69
2018-11-10T04:10:24.408Z,10.67
2018-11-10T04:11:33.315Z,10.68
2018-11-10T04:12:41.945Z,10.67
2018-11-10T04:13:50.853Z,10.75
2018-11-10T04:14:59.497Z,10.79
2018-11-10T04:16:08.406Z,10.82
2018-11-10T04:17:17.048Z,10.76
2018-11-10T04:18:25.680Z,10.76
2018-11-10T04:19:34.317Z,10.9
2018-11-10T04:20:42.958Z,10.8
2018-11-10T04:21:51.608Z,10.9
2018-11-10T04:23:00.239Z,10.92
2018-11-10T04:24:08.882Z,10.95
2018-11-10T04:25:17.514Z,11.01
2018-11-10T04:26:26.429Z,11.01
2018-11-10T04:27:35.063Z,11.12
2018-11-10T04:28:43.704Z,11.07
2018-11-10T04:29:52.339Z,11.15
2018-11-10T04:31:00.988Z,11.13
2018-11-10T04:32:09.627Z,11.1
2018-11-10T04:33:18.544Z,11.16
2018-11-10T04:34:27.720Z,11.23
2018-11-10T04:35:36.621Z,11.25
2018-11-10T04:36:45.266Z,11.26
2018-11-10T04:37:53.910Z,11.3
2018-11-10T04:39:02.554Z,11.4
2018-11-10T04:40:11.182Z,11.44
2018-11-10T04:41:19.826Z,11.53
2018-11-10T04:42:28.466Z,11.53
2018-11-10T04:43:37.116Z,11.49
2018-11-10T04:44:45.746Z,11.55
2018-11-10T04:45:54.389Z,11.7
2018-11-10T04:47:03.025Z,11.67
2018-11-10T04:48:11.673Z,11.67
2018-11-10T04:49:20.309Z,11.7
2018-11-10T04:50:28.951Z,11.68
2018-11-10T04:51:37.846Z,11.71
2018-11-10T04:52:46.753Z,11.76
2018-11-10T04:53:55.654Z,11.73
2018-11-10T04:55:04.294Z,11.77
2018-11-10T04:56:12.931Z,11.77
2018-11-10T04:57:21.567Z,11.76
2018-11-10T04:58:30.212Z,11.81
2018-11-10T04:59:38.857Z,11.77
2018-11-10T05:00:47.496Z,11.77
2018-11-10T05:01:56.402Z,11.68
2018-11-10T05:03:05.043Z,11.8
2018-11-10T05:04:13.684Z,11.74
2018-11-10T05:05:22.327Z,11.71
2018-11-10T05:06:30.959Z,11.76
2018-11-10T05:07:39.869Z,11.71
2018-11-10T05:08:48.506Z,11.7
2018-11-10T05:09:57.423Z,11.71
2018-11-10T05:11:06.064Z,11.7
2018-11-10T05:12:14.698Z,11.71
2018-11-10T05:13:23.340Z,11.7
2018-11-10T05:14:31.983Z,11.67
2018-11-10T05:15:40.626Z,11.63
2018-11-10T05:16:49.268Z,11.65
2018-11-10T05:17:57.908Z,11.63
2018-11-10T05:19:06.812Z,11.65
2018-11-10T05:20:15.457Z,11.68
2018-11-10T05:21:24.361Z,11.67
2018-11-10T05:22:32.999Z,11.73
2018-11-10T05:23:42.168Z,11.65
2018-11-10T05:24:50.816Z,11.71
2018-11-10T05:25:59.450Z,11.67
2018-11-10T05:27:08.091Z,11.68
2018-11-10T05:28:16.733Z,11.68
2018-11-10T05:29:25.642Z,11.71
2018-11-10T05:30:34.284Z,11.74
2018-11-10T05:31:43.186Z,11.71
2018-11-10T05:32:51.830Z,11.74
2018-11-10T05:34:00.469Z,11.67
2018-11-10T05:35:09.115Z,11.68
2018-11-10T05:36:18.021Z,11.65
2018-11-10T05:37:26.662Z,11.63
2018-11-10T05:38:35.296Z,11.59
2018-11-10T05:39:43.945Z,11.55
2018-11-10T05:40:52.844Z,11.59
2018-11-10T05:42:01.485Z,11.62
2018-11-10T05:43:10.126Z,11.58
2018-11-10T05:44:18.769Z,11.59
2018-11-10T05:45:27.405Z,11.56
2018-11-10T05:46:36.049Z,11.53
2018-11-10T05:47:44.685Z,11.6
2018-11-10T05:48:53.330Z,11.55
2018-11-10T05:50:01.970Z,11.55
2018-11-10T05:51:10.613Z,11.56
2018-11-10T05:52:19.257Z,11.53
2018-11-10T05:53:27.892Z,11.56
2018-11-10T05:54:36.534Z,11.52
2018-11-10T05:55:45.178Z,11.48
2018-11-10T05:56:53.849Z,11.49
2018-11-10T05:58:02.761Z,11.48
2018-11-10T05:59:11.401Z,11.48
2018-11-10T06:00:20.044Z,11.49
2018-11-10T06:01:28.953Z,11.43
2018-11-10T06:02:37.591Z,11.51
2018-11-10T06:03:46.234Z,11.49
2018-11-10T06:04:55.139Z,11.41
2018-11-10T06:06:03.783Z,11.52
2018-11-10T06:07:12.683Z,11.49
2018-11-10T06:08:21.591Z,11.52
2018-11-10T06:09:30.288Z,11.6
2018-11-10T06:10:38.870Z,11.6
2018-11-10T06:11:47.514Z,11.65
2018-11-10T06:12:56.483Z,11.68
2018-11-10T06:14:05.123Z,11.73
2018-11-10T06:15:13.760Z,11.65
2018-11-10T06:16:22.410Z,11.7
2018-11-10T06:17:31.322Z,11.73
2018-11-10T06:18:39.970Z,11.73
2018-11-10T06:19:48.862Z,11.8
2018-11-10T06:20:57.509Z,11.81
2018-11-10T06:22:06.410Z,11.83
2018-11-10T06:23:15.315Z,11.8
2018-11-10T06:24:23.952Z,11.86
2018-11-10T06:25:32.596Z,11.86
2018-11-10T06:26:41.504Z,11.97
2018-11-10T06:27:50.147Z,12.03
2018-11-10T06:28:58.791Z,11.97
2018-11-10T06:30:07.440Z,12.03
2018-11-10T06:31:16.081Z,12.05
2018-11-10T06:32:24.999Z,12.17
2018-11-10T06:33:33.643Z,12.25
2018-11-10T06:34:42.278Z,12.14
2018-11-10T06:35:50.922Z,12.14
2018-11-10T06:36:59.563Z,12.21
2018-11-10T06:38:08.209Z,12.26
2018-11-10T06:39:16.848Z,12.28
2018-11-10T06:40:25.495Z,12.23
2018-11-10T06:41:34.399Z,12.26
2018-11-10T06:42:43.043Z,12.39
2018-11-10T06:43:51.682Z,12.39
2018-11-10T06:45:00.325Z,12.39
2018-11-10T06:46:08.963Z,12.48
2018-11-10T06:47:17.602Z,12.48
2018-11-10T06:48:26.253Z,12.51
2018-11-10T06:49:34.894Z,12.5
2018-11-10T06:50:43.799Z,12.39
2018-11-10T06:51:52.430Z,12.54
2018-11-10T06:53:01.162Z,12.39
2018-11-10T06:54:09.717Z,12.54
2018-11-10T06:55:18.365Z,12.58
2018-11-10T06:56:26.998Z,12.58
2018-11-10T06:57:35.648Z,12.53
2018-11-10T06:58:44.285Z,12.5
2018-11-10T06:59:52.929Z,12.53
2018-11-10T07:01:01.560Z,12.54
2018-11-10T07:02:10.201Z,12.55
2018-11-10T07:03:18.856Z,12.55
2018-11-10T07:04:27.501Z,12.5
2018-11-10T07:05:36.145Z,12.55
2018-11-10T07:06:44.776Z,12.57
2018-11-10T07:07:53.419Z,12.65
2018-11-10T07:09:02.056Z,12.66
2018-11-10T07:10:10.708Z,12.65
2018-11-10T07:11:19.600Z,12.57
2018-11-10T07:12:28.508Z,12.62
2018-11-10T07:13:37.148Z,12.62
2018-11-10T07:14:45.797Z,12.65
2018-11-10T07:15:54.481Z,12.65
2018-11-10T07:17:03.076Z,12.69
2018-11-10T07:18:11.777Z,12.68
2018-11-10T07:19:20.368Z,12.63
2018-11-10T07:20:29.270Z,12.62
2018-11-10T07:21:38.170Z,12.57
2018-11-10T07:22:46.811Z,12.61
2018-11-10T07:23:55.445Z,12.61
2018-11-10T07:25:05.986Z,12.58
2018-11-10T07:26:14.484Z,12.5
2018-11-10T07:27:23.393Z,12.58
2018-11-10T07:28:32.026Z,12.54
2018-11-10T07:29:40.941Z,12.68
2018-11-10T07:30:49.843Z,12.65
2018-11-10T07:31:58.562Z,12.65
2018-11-10T07:33:07.465Z,12.65
2018-11-10T07:34:16.382Z,12.58
2018-11-10T07:35:25.021Z,12.69
2018-11-10T07:36:33.664Z,12.63
2018-11-10T07:37:42.299Z,12.68
2018-11-10T07:38:50.941Z,12.68
2018-11-10T07:39:59.588Z,12.62
2018-11-10T07:41:08.231Z,12.62
2018-11-10T07:42:16.882Z,12.68
2018-11-10T07:43:25.513Z,12.69
2018-11-10T07:44:34.157Z,12.63
2018-11-10T07:45:42.803Z,12.68
2018-11-10T07:46:51.434Z,12.7
2018-11-10T07:48:00.087Z,12.68
2018-11-10T07:49:08.730Z,12.72
2018-11-10T07:50:17.647Z,12.69
2018-11-10T07:51:26.449Z,12.66
2018-11-10T07:52:34.942Z,12.68
2018-11-10T07:53:43.576Z,12.61
2018-11-10T07:54:52.219Z,12.65
2018-11-10T07:56:01.217Z,12.58
2018-11-10T07:57:09.773Z,12.68
2018-11-10T07:58:18.422Z,12.62
2018-11-10T07:59:27.069Z,12.61
2018-11-10T08:00:35.978Z,12.66
2018-11-10T08:01:44.875Z,12.58
2018-11-10T08:02:53.521Z,12.62
2018-11-10T08:04:02.167Z,12.62
2018-11-10T08:05:10.819Z,12.62
2018-11-10T08:06:19.452Z,12.62
2018-11-10T08:07:28.098Z,12.69
2018-11-10T08:08:36.736Z,12.57
2018-11-10T08:09:45.386Z,12.69
2018-11-10T08:10:54.018Z,12.68
2018-11-10T08:12:02.734Z,12.63
2018-11-10T08:13:11.565Z,12.58
2018-11-10T08:14:20.214Z,12.55
2018-11-10T08:15:28.855Z,12.61
2018-11-10T08:16:37.489Z,12.63
2018-11-10T08:17:46.129Z,12.54
2018-11-10T08:18:54.768Z,12.57
2018-11-10T08:20:03.418Z,12.63
2018-11-10T08:21:12.055Z,12.58
2018-11-10T08:22:20.700Z,12.61
2018-11-10T08:23:29.336Z,12.62
2018-11-10T08:24:38.034Z,12.68
2018-11-10T08:25:46.623Z,12.63
2018-11-10T08:26:55.273Z,12.57
2018-11-10T08:28:04.169Z,12.68
2018-11-10T08:29:12.821Z,12.63
2018-11-10T08:30:21.469Z,12.66
2018-11-10T08:31:30.638Z,12.65
2018-11-10T08:32:39.269Z,12.66
2018-11-10T08:33:47.912Z,12.63
2018-11-10T08:34:56.556Z,12.72
2018-11-10T08:36:05.199Z,12.68
2018-11-10T08:37:13.837Z,12.66
2018-11-10T08:38:22.471Z,12.81
2018-11-10T08:39:31.380Z,12.8
2018-11-10T08:40:40.015Z,12.8
2018-11-10T08:41:48.665Z,12.8
2018-11-10T08:42:57.299Z,12.86
2018-11-10T08:44:05.942Z,12.86
2018-11-10T08:45:14.852Z,12.84
2018-11-10T08:46:23.500Z,12.81
2018-11-10T08:47:32.401Z,12.94
2018-11-10T08:48:41.044Z,12.84
2018-11-10T08:49:49.684Z,12.9
2018-11-10T08:50:58.332Z,12.84
2018-11-10T08:52:07.235Z,12.98
2018-11-10T08:53:15.876Z,12.84
2018-11-10T08:54:24.518Z,12.91
2018-11-10T08:55:33.418Z,12.95
2018-11-10T08:56:42.063Z,12.98
2018-11-10T08:57:50.968Z,12.99
2018-11-10T08:58:59.948Z,12.99
2018-11-10T09:00:08.524Z,12.91
2018-11-10T09:01:17.172Z,13.06
2018-11-10T09:02:25.813Z,12.94
2018-11-10T09:03:34.454Z,12.98
2018-11-10T09:04:43.356Z,13.02
2018-11-10T09:05:52.004Z,12.99
2018-11-10T09:07:00.643Z,13.01
2018-11-10T09:08:09.285Z,13.12
2018-11-10T09:09:17.924Z,13.19
2018-11-10T09:10:26.829Z,13.17
2018-11-10T09:11:35.481Z,13.19
2018-11-10T09:12:44.118Z,13.23
2018-11-10T09:13:52.784Z,13.2
2018-11-10T09:15:01.432Z,13.23
2018-11-10T09:16:10.042Z,13.31
2018-11-10T09:17:18.688Z,13.36
2018-11-10T09:18:27.333Z,13.31
2018-11-10T09:19:35.971Z,13.37
2018-11-10T09:20:44.611Z,13.4
2018-11-10T09:21:53.256Z,13.42
2018-11-10T09:23:01.900Z,13.45
2018-11-10T09:24:10.538Z,13.54
2018-11-10T09:25:19.185Z,13.64
2018-11-10T09:26:28.095Z,13.6
2018-11-10T09:27:37.006Z,13.55
2018-11-10T09:28:45.904Z,13.64
2018-11-10T09:29:54.547Z,13.78
2018-11-10T09:31:03.748Z,13.75
2018-11-10T09:32:12.597Z,13.65
2018-11-10T09:33:21.243Z,13.64
2018-11-10T09:34:29.884Z,13.82
2018-11-10T09:35:38.526Z,13.79
2018-11-10T09:36:47.174Z,13.71
2018-11-10T09:37:56.347Z,13.75
2018-11-10T09:39:04.995Z,13.87
2018-11-10T09:40:13.638Z,13.94
2018-11-10T09:41:22.272Z,13.85
2018-11-10T09:42:30.999Z,13.87
2018-11-10T09:43:40.142Z,13.97
2018-11-10T09:44:48.787Z,13.91
2018-11-10T09:45:57.550Z,13.94
2018-11-10T09:47:06.511Z,13.91
2018-11-10T09:48:15.157Z,13.98
2018-11-10T09:49:23.810Z,13.98
2018-11-10T09:50:32.490Z,13.97
2018-11-10T09:51:41.565Z,13.98
2018-11-10T09:52:50.211Z,14.03
2018-11-10T09:54:00.111Z,14.03
2018-11-10T09:55:08.764Z,13.98
2018-11-10T09:56:17.396Z,14.03
2018-11-10T09:57:26.041Z,14.03
2018-11-10T09:58:34.677Z,14.04
2018-11-10T09:59:43.327Z,14.01
2018-11-10T10:00:51.979Z,14.12
2018-11-10T10:02:01.020Z,14.13
2018-11-10T10:03:09.329Z,14.12
2018-11-10T10:04:18.048Z,14.08
2018-11-10T10:05:26.687Z,14.05
2018-11-10T10:06:35.447Z,14
2018-11-10T10:07:44.227Z,14.07
2018-11-10T10:08:53.453Z,14.12
2018-11-10T10:10:01.992Z,14.16
2018-11-10T10:11:10.631Z,14.16
2018-11-10T10:12:19.279Z,14.23
2018-11-10T10:13:27.919Z,14.22
2018-11-10T10:14:36.570Z,14.15
2018-11-10T10:15:45.211Z,14.22
2018-11-10T10:16:54.421Z,14.26
2018-11-10T10:18:03.081Z,14.25
2018-11-10T10:19:11.737Z,14.25
2018-11-10T10:20:20.381Z,14.25
2018-11-10T10:21:29.285Z,14.18
2018-11-10T10:22:37.914Z,14.28
2018-11-10T10:23:46.561Z,14.23
2018-11-10T10:24:55.739Z,14.25
2018-11-10T10:26:04.384Z,14.26
2018-11-10T10:27:13.304Z,14.28
2018-11-10T10:28:22.330Z,14.3
2018-11-10T10:29:30.950Z,14.3
2018-11-10T10:30:39.589Z,14.33
2018-11-10T10:31:48.247Z,14.4
2018-11-10T10:32:56.880Z,14.3
2018-11-10T10:34:05.676Z,14.37
2018-11-10T10:35:14.591Z,14.34
2018-11-10T10:36:23.131Z,14.37
2018-11-10T10:37:32.053Z,14.36
2018-11-10T10:38:40.760Z,14.36
2018-11-10T10:39:49.403Z,14.31
2018-11-10T10:40:58.051Z,14.37
2018-11-10T10:42:06.692Z,14.41
2018-11-10T10:43:15.336Z,14.43
2018-11-10T10:44:23.976Z,14.36
2018-11-10T10:45:32.876Z,14.34
2018-11-10T10:46:41.523Z,14.26
2018-11-10T10:47:50.174Z,14.4
2018-11-10T10:48:59.636Z,14.26
2018-11-10T10:50:08.307Z,14.41
2018-11-10T10:51:16.957Z,14.28
2018-11-10T10:52:25.857Z,14.25
2018-11-10T10:53:34.763Z,14.31
2018-11-10T10:54:43.401Z,14.25
2018-11-10T10:55:52.086Z,14.3
2018-11-10T10:57:01.476Z,14.36
2018-11-10T10:58:10.025Z,14.28
2018-11-10T10:59:18.662Z,14.37
2018-11-10T11:00:27.304Z,14.26
2018-11-10T11:01:35.950Z,14.36
2018-11-10T11:02:44.937Z,14.26
2018-11-10T11:03:53.505Z,14.26
2018-11-10T11:05:02.142Z,14.34
2018-11-10T11:06:10.782Z,14.44
2018-11-10T11:07:19.430Z,14.45
2018-11-10T11:08:28.074Z,14.41
2018-11-10T11:09:36.741Z,14.44
2018-11-10T11:10:45.360Z,14.52
2018-11-10T11:11:54.001Z,14.53
2018-11-10T11:13:02.653Z,14.58
2018-11-10T11:14:11.583Z,14.61
2018-11-10T11:15:20.693Z,14.7
2018-11-10T11:16:29.223Z,14.68
2018-11-10T11:17:38.134Z,14.7
2018-11-10T11:18:46.774Z,14.73
2018-11-10T11:19:56.622Z,14.73
2018-11-10T11:21:05.265Z,14.7
2018-11-10T11:22:13.912Z,14.77
2018-11-10T11:23:22.863Z,14.73
2018-11-10T11:24:31.902Z,14.73
2018-11-10T11:25:40.543Z,14.89
2018-11-10T11:26:49.181Z,14.86
2018-11-10T11:27:57.829Z,14.82
2018-11-10T11:29:06.514Z,14.94
2018-11-10T11:30:15.140Z,14.92
2018-11-10T11:31:24.157Z,15
2018-11-10T11:32:32.848Z,15.04
2018-11-10T11:33:41.503Z,15.05
2018-11-10T11:34:50.450Z,15.02
2018-11-10T11:35:59.919Z,15.15
2018-11-10T11:37:08.566Z,15.14
2018-11-10T11:38:17.641Z,15.11
2018-11-10T11:39:26.715Z,15.11
2018-11-10T11:40:35.420Z,15.14
2018-11-10T11:41:44.132Z,15.11
2018-11-10T11:42:52.741Z,15.15
2018-11-10T11:44:01.653Z,15.12
2018-11-10T11:45:10.291Z,15.08
2018-11-10T11:46:18.942Z,15.12
2018-11-10T11:47:27.583Z,14.99
2018-11-10T11:48:36.292Z,15
2018-11-10T11:49:45.017Z,15
2018-11-10T11:50:53.984Z,14.97
2018-11-10T11:52:02.654Z,15.02
2018-11-10T11:53:11.302Z,14.89
2018-11-10T11:54:19.940Z,14.94
2018-11-10T11:55:28.848Z,14.89
2018-11-10T11:56:37.492Z,14.92
2018-11-10T11:57:46.228Z,14.89
2018-11-10T11:58:55.661Z,14.86
2018-11-10T12:00:04.857Z,14.89
2018-11-10T12:01:13.539Z,14.89
2018-11-10T12:02:22.260Z,14.93
2018-11-10T12:03:30.829Z,14.87
2018-11-10T12:04:39.605Z,14.87
2018-11-10T12:05:48.113Z,14.87
2018-11-10T12:06:56.812Z,14.89
2018-11-10T12:08:05.458Z,14.87
2018-11-10T12:09:14.357Z,14.93
2018-11-10T12:10:23.000Z,14.92
2018-11-10T12:11:31.642Z,15.04
2018-11-10T12:12:40.288Z,14.9
2018-11-10T12:13:49.193Z,14.89
2018-11-10T12:14:57.862Z,15
2018-11-10T12:16:06.935Z,15
2018-11-10T12:17:15.572Z,15.04
2018-11-10T12:18:24.218Z,15.04
2018-11-10T12:19:33.262Z,15.04
2018-11-10T12:20:42.466Z,15.02
2018-11-10T12:21:51.158Z,15.04
2018-11-10T12:22:59.750Z,15
2018-11-10T12:24:08.392Z,15.07
2018-11-10T12:25:17.567Z,15.12
2018-11-10T12:26:26.204Z,15.17
2018-11-10T12:27:34.863Z,15.15
2018-11-10T12:28:43.502Z,15.15
2018-11-10T12:29:52.424Z,15.19
2018-11-10T12:31:01.061Z,15.17
2018-11-10T12:32:09.968Z,15.14
2018-11-10T12:33:18.610Z,15.14
2018-11-10T12:34:27.261Z,15.07
2018-11-10T12:35:35.906Z,15.1
2018-11-10T12:36:44.547Z,15.04
2018-11-10T12:37:53.191Z,15
2018-11-10T12:39:01.835Z,15
2018-11-10T12:40:10.485Z,15.05
2018-11-10T12:41:19.160Z,15.07
2018-11-10T12:42:27.807Z,15.05
2018-11-10T12:43:37.018Z,15.04
2018-11-10T12:44:45.669Z,14.92
2018-11-10T12:45:54.308Z,14.93
2018-11-10T12:47:02.953Z,14.93
2018-11-10T12:48:11.597Z,14.87
2018-11-10T12:49:20.307Z,14.87
2018-11-10T12:50:28.948Z,14.87
2018-11-10T12:51:37.692Z,14.92
2018-11-10T12:52:46.499Z,14.82
2018-11-10T12:53:55.172Z,14.77
2018-11-10T12:55:04.412Z,14.71
2018-11-10T12:56:13.110Z,14.71
2018-11-10T12:57:22.027Z,14.68
2018-11-10T12:58:30.661Z,14.67
2018-11-10T12:59:40.047Z,14.66
2018-11-10T13:00:48.788Z,14.74
2018-11-10T13:01:57.728Z,14.73
2018-11-10T13:03:07.373Z,14.62
2018-11-10T13:04:16.276Z,14.61
2018-11-10T13:05:25.404Z,14.52
2018-11-10T13:06:34.033Z,14.56
2018-11-10T13:07:42.665Z,14.55
2018-11-10T13:08:51.313Z,14.55
2018-11-10T13:09:59.960Z,14.59
2018-11-10T13:11:08.656Z,14.45
2018-11-10T13:12:17.259Z,14.48
2018-11-10T13:13:25.891Z,14.52
2018-11-10T13:14:34.541Z,14.43
2018-11-10T13:15:43.180Z,14.44
2018-11-10T13:16:52.160Z,14.51
2018-11-10T13:18:00.807Z,14.45
2018-11-10T13:19:09.455Z,14.49
2018-11-10T13:20:18.613Z,14.41
2018-11-10T13:21:27.554Z,14.43
2018-11-10T13:22:36.187Z,14.44
2018-11-10T13:23:44.831Z,14.41
2018-11-10T13:24:53.473Z,14.4
2018-11-10T13:26:02.126Z,14.37
2018-11-10T13:27:10.767Z,14.37
2018-11-10T13:28:19.407Z,14.37
2018-11-10T13:29:28.312Z,14.41
2018-11-10T13:30:37.212Z,14.33
2018-11-10T13:31:46.383Z,14.3
2018-11-10T13:32:54.844Z,14.3
2018-11-10T13:34:03.495Z,14.23
2018-11-10T13:35:12.130Z,14.23
2018-11-10T13:36:21.039Z,14.23
2018-11-10T13:37:29.948Z,14.25
2018-11-10T13:38:38.593Z,14.23
2018-11-10T13:39:47.244Z,14.19
2018-11-10T13:40:55.884Z,14.23
2018-11-10T13:42:04.529Z,14.2
2018-11-10T13:43:13.238Z,14.2
2018-11-10T13:44:22.254Z,14.22
2018-11-10T13:45:31.247Z,14.22
2018-11-10T13:46:40.163Z,14.23
2018-11-10T13:47:48.808Z,14.23
2018-11-10T13:48:57.713Z,14.23
2018-11-10T13:50:06.355Z,14.19
2018-11-10T13:51:15.537Z,14.23
2018-11-10T13:52:24.252Z,14.19
2018-11-10T13:53:32.805Z,14.23
2018-11-10T13:54:41.459Z,14.15
2018-11-10T13:55:50.140Z,14.23
2018-11-10T13:56:58.742Z,14.19
2018-11-10T13:58:07.383Z,14.18
2018-11-10T13:59:16.072Z,14.16
2018-11-10T14:00:24.674Z,14.23
2018-11-10T14:01:33.326Z,14.23
2018-11-10T14:02:42.507Z,14.23
2018-11-10T14:03:51.152Z,14.23
2018-11-10T14:04:59.798Z,14.25
2018-11-10T14:06:08.441Z,14.22
2018-11-10T14:07:17.349Z,14.22
2018-11-10T14:08:25.986Z,14.25
2018-11-10T14:09:34.629Z,14.22
2018-11-10T14:10:43.275Z,14.15
2018-11-10T14:11:51.926Z,14.22
2018-11-10T14:13:00.561Z,14.13
2018-11-10T14:14:09.207Z,14.16
2018-11-10T14:15:17.850Z,14.18
2018-11-10T14:16:26.496Z,14.13
2018-11-10T14:17:35.134Z,14.03
2018-11-10T14:18:43.785Z,14.15
2018-11-10T14:19:52.427Z,14.05
2018-11-10T14:21:01.071Z,14.03
2018-11-10T14:22:09.710Z,14.07
2018-11-10T14:23:18.355Z,14.08
2018-11-10T14:24:26.998Z,14.15
2018-11-10T14:25:35.904Z,14.08
2018-11-10T14:26:44.553Z,14.07
2018-11-10T14:27:53.196Z,14.01
2018-11-10T14:29:01.839Z,14.04
2018-11-10T14:30:10.511Z,14.05
2018-11-10T14:31:19.277Z,14.04
2018-11-10T14:32:28.136Z,14.05
2018-11-10T14:33:37.436Z,14.04
2018-11-10T14:34:46.426Z,14.01
2018-11-10T14:35:55.106Z,14.03
2018-11-10T14:37:04.057Z,14.03
2018-11-10T14:38:13.012Z,13.98
2018-11-10T14:39:21.720Z,13.97
2018-11-10T14:40:30.917Z,13.97
2018-11-10T14:41:39.564Z,13.97
2018-11-10T14:42:48.473Z,13.98
2018-11-10T14:43:57.175Z,13.95
2018-11-10T14:45:05.754Z,13.87
2018-11-10T14:46:14.402Z,13.93
2018-11-10T14:47:23.304Z,13.86
2018-11-10T14:48:31.957Z,13.87
2018-11-10T14:49:40.858Z,13.85
2018-11-10T14:50:49.505Z,13.86
2018-11-10T14:51:58.408Z,13.85